Ashley, Louisiana
Current Conditions -  °F | °C
As of 6:53 PM on Tuesday 21 Oct 2014 (Local Time) from KTVR Reporting Station
Clear Clear  
Wind Chill: 17°   Ceiling: Unl
Heat Index: 17°   Visibility: 10mi
Dew Point: 16°   Wind: 3mph
Humidity: 90%   Direction: 360°N
Pressure: 30.01"   Gusts: NA
Location:  32.3599°N, 91.2529°W
Report Text: KTVR 212353Z AUTO 36003KT 10SM CLR 17/16 A3001 RMK AO2 SLP169 T01720156 10267 20172 55001
Loading
Personal Weather Stations






























Interactive Weather Map
Tropical Storm Tracking
New forecast layout! Learn more

10-Day Weather Forecast

Advertisements
Track Severe Weather on mobile